createdAt,value
2023-07-22T00:00:39.899Z,78.36
2023-07-22T00:03:06.590Z,78.38
2023-07-22T00:05:33.186Z,78.42
2023-07-22T00:07:59.769Z,78.24
2023-07-22T00:10:26.416Z,78.29
2023-07-22T00:12:52.944Z,78.44
2023-07-22T00:15:23.313Z,78.73
2023-07-22T00:17:50.087Z,78.90
2023-07-22T00:20:17.249Z,78.73
2023-07-22T00:22:43.983Z,79.18
2023-07-22T00:25:11.939Z,79.12
2023-07-22T00:27:42.901Z,79.01
2023-07-22T00:30:12.774Z,79.03
2023-07-22T00:32:39.346Z,79.46
2023-07-22T00:35:06.651Z,79.35
2023-07-22T00:37:33.805Z,79.17
2023-07-22T00:40:02.655Z,79.34
2023-07-22T00:42:29.536Z,79.14
2023-07-22T00:44:56.503Z,79.82
2023-07-22T00:47:23.311Z,79.57
2023-07-22T00:49:52.037Z,79.34
2023-07-22T00:52:18.962Z,79.54
2023-07-22T00:54:45.880Z,79.41
2023-07-22T00:57:13.627Z,79.68
2023-07-22T00:59:41.735Z,79.47
2023-07-22T01:02:08.595Z,79.70
2023-07-22T01:04:36.513Z,79.93
2023-07-22T01:07:08.380Z,79.97
2023-07-22T01:09:39.260Z,79.81
2023-07-22T01:12:07.187Z,79.91
2023-07-22T01:14:37.788Z,79.92
2023-07-22T01:17:06.209Z,80.15
2023-07-22T01:19:33.697Z,80.56
2023-07-22T01:22:09.813Z,80.10
2023-07-22T01:24:37.048Z,80.59
2023-07-22T01:27:04.598Z,80.46
2023-07-22T01:29:31.405Z,80.50
2023-07-22T01:31:57.978Z,80.35
2023-07-22T01:34:26.018Z,80.36
2023-07-22T01:36:55.626Z,80.28
2023-07-22T01:39:23.017Z,80.45
2023-07-22T01:41:49.610Z,80.09
2023-07-22T01:44:16.232Z,80.14
2023-07-22T01:46:43.192Z,80.64
2023-07-22T01:49:13.639Z,80.29
2023-07-22T01:51:43.893Z,80.41
2023-07-22T01:54:11.301Z,80.05
2023-07-22T01:56:38.290Z,80.47
2023-07-22T01:59:05.112Z,80.83
2023-07-22T02:01:32.734Z,80.62
2023-07-22T02:03:59.559Z,80.63
2023-07-22T02:06:28.141Z,80.85
2023-07-22T02:08:55.394Z,80.68
2023-07-22T02:11:21.935Z,81.08
2023-07-22T02:13:48.535Z,81.11
2023-07-22T02:16:15.156Z,81.01
2023-07-22T02:18:41.798Z,81.47
2023-07-22T02:21:08.465Z,81.16
2023-07-22T02:23:35.117Z,81.59
2023-07-22T02:26:02.313Z,80.94
2023-07-22T02:28:28.976Z,80.95
2023-07-22T02:30:55.610Z,82.13
2023-07-22T02:33:22.890Z,81.78
2023-07-22T02:35:50.257Z,81.89
2023-07-22T02:38:17.111Z,81.38
2023-07-22T02:40:45.040Z,81.65
2023-07-22T02:43:11.656Z,81.39
2023-07-22T02:45:38.757Z,82.07
2023-07-22T02:48:05.790Z,82.27
2023-07-22T02:50:32.459Z,81.87
2023-07-22T02:52:59.124Z,82.33
2023-07-22T02:55:25.843Z,82.18
2023-07-22T02:57:52.607Z,82.53
2023-07-22T03:00:26.739Z,82.46
2023-07-22T03:03:01.735Z,82.54
2023-07-22T03:05:29.614Z,82.82
2023-07-22T03:07:58.279Z,83.03
2023-07-22T03:10:26.633Z,83.29
2023-07-22T03:12:57.330Z,83.40
2023-07-22T03:15:26.852Z,83.45
2023-07-22T03:17:54.038Z,83.57
2023-07-22T03:20:20.681Z,83.20
2023-07-22T03:22:47.709Z,83.38
2023-07-22T03:25:15.556Z,83.83
2023-07-22T03:27:42.517Z,83.83
2023-07-22T03:30:10.890Z,83.63
2023-07-22T03:32:37.818Z,83.75
2023-07-22T03:35:04.816Z,83.94
2023-07-22T03:37:31.422Z,84.39
2023-07-22T03:39:58.011Z,83.69
2023-07-22T03:42:24.500Z,84.02
2023-07-22T03:44:51.055Z,84.22
2023-07-22T03:47:17.734Z,83.89
2023-07-22T03:49:44.365Z,84.22
2023-07-22T03:52:10.863Z,84.40
2023-07-22T03:54:37.435Z,84.55
2023-07-22T03:57:04.239Z,84.92
2023-07-22T03:59:31.044Z,84.91
2023-07-22T04:01:57.749Z,85.01
2023-07-22T04:04:24.410Z,84.94
2023-07-22T04:06:51.023Z,84.85
2023-07-22T04:09:18.003Z,85.15
2023-07-22T04:11:44.521Z,84.87
2023-07-22T04:14:13.305Z,84.87
2023-07-22T04:16:40.547Z,85.24
2023-07-22T04:19:07.269Z,85.53
2023-07-22T04:21:33.804Z,85.64
2023-07-22T04:24:00.330Z,86.15
2023-07-22T04:26:26.981Z,85.61
2023-07-22T04:28:57.394Z,85.47
2023-07-22T04:31:27.855Z,85.77
2023-07-22T04:33:55.536Z,85.46
2023-07-22T04:36:22.452Z,85.95
2023-07-22T04:38:49.225Z,85.98
2023-07-22T04:41:16.240Z,86.24
2023-07-22T04:43:45.167Z,86.24
2023-07-22T04:46:12.461Z,86.40
2023-07-22T04:48:39.083Z,86.73
2023-07-22T04:51:07.915Z,87.17
2023-07-22T04:53:34.545Z,86.81
2023-07-22T04:56:02.632Z,86.93
2023-07-22T04:58:29.337Z,87.14
2023-07-22T05:00:55.892Z,87.27
2023-07-22T05:03:26.488Z,87.16
2023-07-22T05:05:53.619Z,87.81
2023-07-22T05:08:20.152Z,87.41
2023-07-22T05:10:49.824Z,87.66
2023-07-22T05:13:17.483Z,87.89
2023-07-22T05:15:44.079Z,87.89
2023-07-22T05:18:10.800Z,88.35
2023-07-22T05:20:40.192Z,88.42
2023-07-22T05:23:06.714Z,88.44
2023-07-22T05:25:33.329Z,88.78
2023-07-22T05:27:59.872Z,88.52
2023-07-22T05:30:35.249Z,89.05
2023-07-22T05:33:02.882Z,89.20
2023-07-22T05:35:29.699Z,89.31
2023-07-22T05:37:57.636Z,88.80
2023-07-22T05:40:24.542Z,89.24
2023-07-22T05:42:51.137Z,89.21
2023-07-22T05:45:17.864Z,89.46
2023-07-22T05:47:44.558Z,89.46
2023-07-22T05:50:13.715Z,89.49
2023-07-22T05:52:41.490Z,89.35
2023-07-22T05:55:08.411Z,89.06
2023-07-22T05:57:35.794Z,89.04
2023-07-22T06:00:09.130Z,89.26
2023-07-22T06:02:39.201Z,89.40
2023-07-22T06:05:08.481Z,89.50
2023-07-22T06:07:35.065Z,89.43
2023-07-22T06:10:02.117Z,89.46
2023-07-22T06:12:28.779Z,88.98
2023-07-22T06:14:55.428Z,88.79
2023-07-22T06:17:22.146Z,88.46
2023-07-22T06:19:48.768Z,88.42
2023-07-22T06:22:16.069Z,87.98
2023-07-22T06:24:43.516Z,87.72
2023-07-22T06:27:10.410Z,87.86
2023-07-22T06:29:37.032Z,86.91
2023-07-22T06:32:03.964Z,86.13
2023-07-22T06:34:30.896Z,81.94
2023-07-22T06:36:57.330Z,80.92
2023-07-22T06:39:23.875Z,79.06
2023-07-22T06:41:50.446Z,78.58
2023-07-22T06:44:16.991Z,77.75
2023-07-22T06:46:45.238Z,78.58
2023-07-22T06:49:11.933Z,79.04
2023-07-22T06:51:38.706Z,78.49
2023-07-22T06:54:05.352Z,77.81
2023-07-22T06:56:32.128Z,76.58
2023-07-22T06:58:59.340Z,76.34
2023-07-22T07:01:27.034Z,75.95
2023-07-22T07:03:53.684Z,75.92
2023-07-22T07:06:20.403Z,75.44
2023-07-22T07:08:46.933Z,75.37
2023-07-22T07:11:13.567Z,74.89
2023-07-22T07:13:40.116Z,76.41
2023-07-22T07:16:28.643Z,75.22
2023-07-22T07:18:56.632Z,75.36
2023-07-22T07:21:24.022Z,75.21
2023-07-22T07:23:52.248Z,73.48
2023-07-22T07:26:21.280Z,71.90
2023-07-22T07:28:50.096Z,72.28
2023-07-22T07:31:16.593Z,72.49
2023-07-22T07:33:43.200Z,73.35
2023-07-22T07:36:12.856Z,74.04
2023-07-22T07:38:39.483Z,74.18
2023-07-22T07:41:09.700Z,74.03
2023-07-22T07:43:36.788Z,73.37
2023-07-22T07:46:23.549Z,73.47
2023-07-22T07:48:52.932Z,73.03
2023-07-22T07:51:22.140Z,72.58
2023-07-22T07:53:49.388Z,72.75
2023-07-22T07:56:18.120Z,71.83
2023-07-22T07:58:46.045Z,71.49
2023-07-22T08:01:14.049Z,70.25
2023-07-22T08:03:42.944Z,71.14
2023-07-22T08:06:11.277Z,70.39
2023-07-22T08:08:38.655Z,71.42
2023-07-22T08:11:10.860Z,71.10
2023-07-22T08:13:38.511Z,69.41
2023-07-22T08:16:07.166Z,68.99
2023-07-22T08:18:35.134Z,69.21
2023-07-22T08:21:07.682Z,67.94
2023-07-22T08:23:35.022Z,67.64
2023-07-22T08:26:01.762Z,67.01
2023-07-22T08:28:28.525Z,67.63
2023-07-22T08:30:56.771Z,65.86
2023-07-22T08:33:38.949Z,63.24
2023-07-22T08:36:07.737Z,62.65
2023-07-22T08:38:35.398Z,61.43
2023-07-22T08:41:02.123Z,61.66
2023-07-22T08:43:29.664Z,61.05
2023-07-22T08:46:03.435Z,61.39
2023-07-22T08:48:35.804Z,61.12
2023-07-22T08:51:11.931Z,60.00
2023-07-22T08:53:41.963Z,58.76
2023-07-22T08:56:10.020Z,59.15
2023-07-22T08:58:37.289Z,59.23
2023-07-22T09:01:04.079Z,58.84
2023-07-22T09:03:30.692Z,58.45
2023-07-22T09:05:57.924Z,59.91
2023-07-22T09:08:25.314Z,59.13
2023-07-22T09:10:51.885Z,59.00
2023-07-22T09:13:20.485Z,58.96
2023-07-22T09:15:49.009Z,59.19
2023-07-22T09:18:16.829Z,59.00
2023-07-22T09:20:45.015Z,57.69
2023-07-22T09:23:14.467Z,57.11
2023-07-22T09:25:43.038Z,57.53
2023-07-22T09:28:10.744Z,58.67
2023-07-22T09:30:39.855Z,57.99
2023-07-22T09:33:22.197Z,58.44
2023-07-22T09:35:50.448Z,57.34
2023-07-22T09:38:24.995Z,57.47
2023-07-22T09:40:52.205Z,57.09
2023-07-22T09:43:19.800Z,57.16
2023-07-22T09:45:49.214Z,56.90
2023-07-22T09:48:16.344Z,57.28
2023-07-22T09:50:43.073Z,56.82
2023-07-22T09:53:15.663Z,57.80
2023-07-22T09:55:42.247Z,56.59
2023-07-22T09:58:11.864Z,56.61
2023-07-22T10:00:40.232Z,57.06
2023-07-22T10:03:11.054Z,56.46
2023-07-22T10:05:39.870Z,57.32
2023-07-22T10:08:07.823Z,57.79
2023-07-22T10:10:39.306Z,57.59
2023-07-22T10:13:06.877Z,56.51
2023-07-22T10:15:35.470Z,56.28
2023-07-22T10:18:03.647Z,56.40
2023-07-22T10:20:31.249Z,56.54
2023-07-22T10:23:01.088Z,55.79
2023-07-22T10:25:27.747Z,54.97
2023-07-22T10:27:55.194Z,55.19
2023-07-22T10:30:22.383Z,54.16
2023-07-22T10:32:53.629Z,55.13
2023-07-22T10:35:32.152Z,55.34
2023-07-22T10:38:16.125Z,55.45
2023-07-22T10:40:53.584Z,54.81
2023-07-22T10:43:27.931Z,54.47
2023-07-22T10:45:57.275Z,53.83
2023-07-22T10:48:29.044Z,54.57
2023-07-22T10:51:05.820Z,54.22
2023-07-22T10:53:32.407Z,54.80
2023-07-22T10:56:14.404Z,54.66
2023-07-22T10:58:45.167Z,54.79
2023-07-22T11:01:27.605Z,55.45
2023-07-22T11:04:19.169Z,56.00
2023-07-22T11:06:46.895Z,55.85
2023-07-22T11:09:29.895Z,55.51
2023-07-22T11:12:00.599Z,56.24
2023-07-22T11:14:29.962Z,55.49
2023-07-22T11:17:01.777Z,56.81
2023-07-22T11:19:28.540Z,55.86
2023-07-22T11:21:55.625Z,55.77
2023-07-22T11:24:24.592Z,55.53
2023-07-22T11:26:53.519Z,55.85
2023-07-22T11:29:20.647Z,55.92
2023-07-22T11:31:49.980Z,56.63
2023-07-22T11:34:18.530Z,56.95
2023-07-22T11:36:45.886Z,56.49
2023-07-22T11:39:14.393Z,55.62
2023-07-22T11:41:44.869Z,55.74
2023-07-22T11:44:15.764Z,55.18
2023-07-22T11:46:54.741Z,55.28
2023-07-22T11:49:44.722Z,54.50
2023-07-22T11:52:16.248Z,54.12
2023-07-22T11:54:43.512Z,52.87
2023-07-22T11:57:22.432Z,53.80
2023-07-22T11:59:51.760Z,54.94
2023-07-22T12:02:25.838Z,55.20
2023-07-22T12:05:07.096Z,56.66
2023-07-22T12:07:36.218Z,56.99
2023-07-22T12:10:08.305Z,58.30
2023-07-22T12:12:49.328Z,58.84
2023-07-22T12:15:20.588Z,59.54
2023-07-22T12:17:54.993Z,59.17
2023-07-22T12:20:27.169Z,60.65
2023-07-22T12:22:57.637Z,62.32
2023-07-22T12:25:24.725Z,62.34
2023-07-22T12:27:51.308Z,62.89
2023-07-22T12:30:21.082Z,62.83
2023-07-22T12:32:48.519Z,62.30
2023-07-22T12:35:15.234Z,61.79
2023-07-22T12:37:42.098Z,61.35
2023-07-22T12:40:09.661Z,59.29
2023-07-22T12:42:39.665Z,59.77
2023-07-22T12:45:06.985Z,60.56
2023-07-22T12:47:33.642Z,59.74
2023-07-22T12:50:01.320Z,60.49
2023-07-22T12:52:27.912Z,61.81
2023-07-22T12:54:54.753Z,62.74
2023-07-22T12:57:21.351Z,64.35
2023-07-22T12:59:48.658Z,64.89
2023-07-22T13:02:17.830Z,65.70
2023-07-22T13:04:45.324Z,67.24
2023-07-22T13:07:12.754Z,69.90
2023-07-22T13:09:39.335Z,68.72
2023-07-22T13:12:06.583Z,69.01
2023-07-22T13:14:33.152Z,70.49
2023-07-22T13:16:59.971Z,71.44
2023-07-22T13:19:26.591Z,71.74
2023-07-22T13:21:53.102Z,71.69
2023-07-22T13:24:19.700Z,72.50
2023-07-22T13:26:46.634Z,71.65
2023-07-22T13:29:13.155Z,71.73
2023-07-22T13:31:40.232Z,72.04
2023-07-22T13:34:06.751Z,71.43
2023-07-22T13:36:33.311Z,71.77
2023-07-22T13:39:00.914Z,72.29
2023-07-22T13:41:27.752Z,72.28
2023-07-22T13:43:54.466Z,70.15
2023-07-22T13:46:21.206Z,70.78
2023-07-22T13:48:49.225Z,68.68
2023-07-22T13:51:15.766Z,69.93
2023-07-22T13:53:42.262Z,69.37
2023-07-22T13:56:08.799Z,69.56
2023-07-22T13:58:35.345Z,70.24
2023-07-22T14:01:02.756Z,69.91
2023-07-22T14:03:29.499Z,70.26
2023-07-22T14:05:57.088Z,69.14
2023-07-22T14:08:23.664Z,69.09
2023-07-22T14:10:50.325Z,68.80
2023-07-22T14:13:19.223Z,68.27
2023-07-22T14:15:45.788Z,68.75
2023-07-22T14:18:17.879Z,68.43
2023-07-22T14:20:44.944Z,69.15
2023-07-22T14:23:11.414Z,67.45
2023-07-22T14:25:38.167Z,67.94
2023-07-22T14:28:04.940Z,67.12
2023-07-22T14:30:31.452Z,67.08
2023-07-22T14:32:58.025Z,68.25
2023-07-22T14:35:24.970Z,66.69
2023-07-22T14:37:52.072Z,66.46
2023-07-22T14:40:18.907Z,66.21
2023-07-22T14:42:45.404Z,65.80
2023-07-22T14:45:12.037Z,65.44
2023-07-22T14:47:38.670Z,66.19
2023-07-22T14:50:05.661Z,66.41
2023-07-22T14:52:33.169Z,65.46
2023-07-22T14:54:59.689Z,66.10
2023-07-22T14:57:30.358Z,63.94
2023-07-22T14:59:57.161Z,63.90
2023-07-22T15:02:24.106Z,63.59
2023-07-22T15:04:50.656Z,64.06
2023-07-22T15:07:17.249Z,64.16
2023-07-22T15:09:43.836Z,63.56
2023-07-22T15:12:15.744Z,63.72
2023-07-22T15:14:44.921Z,64.64
2023-07-22T15:17:11.488Z,65.14
2023-07-22T15:19:38.110Z,64.11
2023-07-22T15:22:09.577Z,64.56
2023-07-22T15:24:36.224Z,65.29
2023-07-22T15:27:02.828Z,65.04
2023-07-22T15:29:29.375Z,65.78
2023-07-22T15:31:57.015Z,67.45
2023-07-22T15:34:24.213Z,68.08
2023-07-22T15:36:50.787Z,68.94
2023-07-22T15:39:18.362Z,67.20
2023-07-22T15:41:44.813Z,69.04
2023-07-22T15:44:13.885Z,70.47
2023-07-22T15:46:40.473Z,69.57
2023-07-22T15:49:07.046Z,69.30
2023-07-22T15:51:33.572Z,68.39
2023-07-22T15:54:00.038Z,68.27
2023-07-22T15:56:26.539Z,67.88
2023-07-22T15:58:54.437Z,67.10
2023-07-22T16:01:21.193Z,66.59
2023-07-22T16:03:47.923Z,66.85
2023-07-22T16:06:26.833Z,66.17
2023-07-22T16:08:55.942Z,65.93
2023-07-22T16:11:22.581Z,65.65
2023-07-22T16:13:49.907Z,65.21
2023-07-22T16:16:16.459Z,65.52
2023-07-22T16:18:43.012Z,64.82
2023-07-22T16:21:09.688Z,65.82
2023-07-22T16:23:36.653Z,66.79
2023-07-22T16:26:06.117Z,65.74
2023-07-22T16:28:32.656Z,66.07
2023-07-22T16:30:59.660Z,67.65
2023-07-22T16:33:26.217Z,64.92
2023-07-22T16:35:52.769Z,64.58
2023-07-22T16:38:19.302Z,64.83
2023-07-22T16:40:45.825Z,64.83
2023-07-22T16:43:12.404Z,63.99
2023-07-22T16:45:38.946Z,63.38
2023-07-22T16:48:05.758Z,63.73
2023-07-22T16:50:33.804Z,63.68
2023-07-22T16:53:02.936Z,63.61
2023-07-22T16:55:30.491Z,63.62
2023-07-22T16:57:57.091Z,64.34
2023-07-22T17:00:23.721Z,63.69
2023-07-22T17:02:51.610Z,65.27
2023-07-22T17:05:18.426Z,64.56
2023-07-22T17:07:47.016Z,63.36
2023-07-22T17:10:13.637Z,64.25
2023-07-22T17:12:40.305Z,63.81
2023-07-22T17:15:07.399Z,64.35
2023-07-22T17:17:33.957Z,63.54
2023-07-22T17:20:00.531Z,62.87
2023-07-22T17:22:27.130Z,63.57
2023-07-22T17:24:53.731Z,63.27
2023-07-22T17:27:20.314Z,64.52
2023-07-22T17:29:46.937Z,64.43
2023-07-22T17:32:14.916Z,63.67
2023-07-22T17:34:41.420Z,64.65
2023-07-22T17:37:10.240Z,64.79
2023-07-22T17:39:36.839Z,64.50
2023-07-22T17:42:03.693Z,65.07
2023-07-22T17:44:30.494Z,66.17
2023-07-22T17:46:59.221Z,65.98
2023-07-22T17:49:26.209Z,66.88
2023-07-22T17:51:52.793Z,67.16
2023-07-22T17:54:19.280Z,67.66
2023-07-22T17:56:45.734Z,69.58
2023-07-22T17:59:12.253Z,70.12
2023-07-22T18:01:38.882Z,72.79
2023-07-22T18:04:05.697Z,72.71
2023-07-22T18:06:32.302Z,73.79
2023-07-22T18:08:58.844Z,75.83
2023-07-22T18:11:25.392Z,75.42
2023-07-22T18:13:54.418Z,74.87
2023-07-22T18:16:21.701Z,74.99
2023-07-22T18:18:48.581Z,76.13
2023-07-22T18:21:17.311Z,75.92
2023-07-22T18:23:43.860Z,76.89
2023-07-22T18:26:10.487Z,77.78
2023-07-22T18:28:37.136Z,78.22
2023-07-22T18:31:04.104Z,78.69
2023-07-22T18:33:30.825Z,79.42
2023-07-22T18:35:58.870Z,79.04
2023-07-22T18:38:25.660Z,79.68
2023-07-22T18:40:52.270Z,79.47
2023-07-22T18:43:19.694Z,80.30
2023-07-22T18:45:47.669Z,80.30
2023-07-22T18:48:14.219Z,81.23
2023-07-22T18:50:40.802Z,81.06
2023-07-22T18:53:07.349Z,82.02
2023-07-22T18:55:36.308Z,81.74
2023-07-22T18:58:02.809Z,82.27
2023-07-22T19:00:29.471Z,83.37
2023-07-22T19:02:58.444Z,83.88
2023-07-22T19:05:25.253Z,83.27
2023-07-22T19:07:53.519Z,83.78
2023-07-22T19:10:20.035Z,87.22
2023-07-22T19:12:46.638Z,86.89
2023-07-22T19:15:13.237Z,87.65
2023-07-22T19:17:40.133Z,88.86
2023-07-22T19:20:07.054Z,89.10
2023-07-22T19:22:33.710Z,90.03
2023-07-22T19:25:00.302Z,90.14
2023-07-22T19:27:26.961Z,90.09
2023-07-22T19:29:54.956Z,90.94
2023-07-22T19:32:22.885Z,91.56
2023-07-22T19:34:49.496Z,90.91
2023-07-22T19:37:16.253Z,90.66
2023-07-22T19:39:42.787Z,90.57
2023-07-22T19:42:09.808Z,91.24
2023-07-22T19:44:36.476Z,90.70
2023-07-22T19:47:03.927Z,91.47
2023-07-22T19:49:30.488Z,91.88
2023-07-22T19:51:57.066Z,92.31
2023-07-22T19:54:27.220Z,91.67
2023-07-22T19:56:54.956Z,90.82
2023-07-22T19:59:22.157Z,91.49
2023-07-22T20:01:48.880Z,91.40
2023-07-22T20:04:15.531Z,91.29
2023-07-22T20:06:42.082Z,91.58
2023-07-22T20:09:10.056Z,92.01
2023-07-22T20:11:36.739Z,90.48
2023-07-22T20:14:05.766Z,91.56
2023-07-22T20:16:33.220Z,90.78
2023-07-22T20:18:59.768Z,91.31
2023-07-22T20:21:26.633Z,91.55
2023-07-22T20:23:53.414Z,91.15
2023-07-22T20:26:19.937Z,91.11
2023-07-22T20:28:46.785Z,91.88
2023-07-22T20:31:13.903Z,91.75
2023-07-22T20:33:40.435Z,92.23
2023-07-22T20:36:07.834Z,91.69
2023-07-22T20:38:35.500Z,91.75
2023-07-22T20:41:06.328Z,92.29
2023-07-22T20:43:33.889Z,91.91
2023-07-22T20:46:05.477Z,91.98
2023-07-22T20:48:33.031Z,91.88
2023-07-22T20:50:59.573Z,91.50
2023-07-22T20:53:31.110Z,91.80
2023-07-22T20:56:01.746Z,91.48
2023-07-22T20:58:29.682Z,91.59
2023-07-22T21:01:00.815Z,91.68
2023-07-22T21:03:27.884Z,92.17
2023-07-22T21:05:58.828Z,92.42
2023-07-22T21:08:26.106Z,91.91
2023-07-22T21:10:52.770Z,92.30
2023-07-22T21:13:20.128Z,92.51
2023-07-22T21:15:49.685Z,92.12
2023-07-22T21:18:16.703Z,92.06
2023-07-22T21:20:44.284Z,92.21
2023-07-22T21:23:10.845Z,92.46
2023-07-22T21:25:37.505Z,92.16
2023-07-22T21:28:04.253Z,92.58
2023-07-22T21:30:30.963Z,92.43
2023-07-22T21:32:57.652Z,91.78
2023-07-22T21:35:24.240Z,92.51
2023-07-22T21:37:50.857Z,92.65
2023-07-22T21:40:17.540Z,92.96
2023-07-22T21:42:44.881Z,92.33
2023-07-22T21:45:11.864Z,93.04
2023-07-22T21:47:38.586Z,92.58
2023-07-22T21:50:05.810Z,92.92
2023-07-22T21:52:32.353Z,93.30
2023-07-22T21:54:58.996Z,93.42
2023-07-22T21:57:25.578Z,93.50
2023-07-22T21:59:52.134Z,93.90
2023-07-22T22:02:19.456Z,93.46
2023-07-22T22:04:46.082Z,94.12
2023-07-22T22:07:12.629Z,93.88
2023-07-22T22:09:39.567Z,93.80
2023-07-22T22:12:06.565Z,93.95
2023-07-22T22:14:33.219Z,94.16
2023-07-22T22:17:00.047Z,94.23
2023-07-22T22:19:27.245Z,93.87
2023-07-22T22:21:53.850Z,94.34
2023-07-22T22:24:20.412Z,94.13
2023-07-22T22:26:46.992Z,94.35
2023-07-22T22:29:14.080Z,94.69
2023-07-22T22:31:40.638Z,94.23
2023-07-22T22:34:07.311Z,94.58
2023-07-22T22:36:33.871Z,94.55
2023-07-22T22:39:00.444Z,94.26
2023-07-22T22:41:27.215Z,94.00
2023-07-22T22:43:54.022Z,94.00
2023-07-22T22:46:20.679Z,94.62
2023-07-22T22:48:47.634Z,94.49
2023-07-22T22:51:14.158Z,94.63
2023-07-22T22:53:40.692Z,94.25
2023-07-22T22:56:07.359Z,93.97
2023-07-22T22:58:33.939Z,94.32
2023-07-22T23:01:00.463Z,94.92
2023-07-22T23:03:27.016Z,94.99
2023-07-22T23:05:53.549Z,95.10
2023-07-22T23:08:20.037Z,95.15
2023-07-22T23:10:47.913Z,95.05
2023-07-22T23:13:15.219Z,95.34
2023-07-22T23:15:41.923Z,95.45
2023-07-22T23:18:10.609Z,94.58
2023-07-22T23:20:37.099Z,95.06
2023-07-22T23:23:03.678Z,95.11
2023-07-22T23:25:30.232Z,94.88
2023-07-22T23:27:56.943Z,94.34
2023-07-22T23:30:24.502Z,94.19
2023-07-22T23:32:52.253Z,94.25
2023-07-22T23:35:18.927Z,94.59
2023-07-22T23:37:45.603Z,95.13
2023-07-22T23:40:12.709Z,94.79
2023-07-22T23:42:39.290Z,94.95
2023-07-22T23:45:06.319Z,94.93
2023-07-22T23:47:33.589Z,94.88
2023-07-22T23:50:01.328Z,95.15
2023-07-22T23:52:27.964Z,94.87
2023-07-22T23:54:55.617Z,95.29
2023-07-22T23:57:22.155Z,94.95
2023-07-22T23:59:48.876Z,95.16
